Wetterdaten: Woche 14.03.16 - 20.03.16 (KW11)
Datum Zeit Temp. A. Feuchte A. Luftdruck Regen Wind Richtung Taupunkt Windchill Windben
14.03.2016 00:00 3,9 C 75 % 1029,9 hPa 0,0 l/m 5,6 km/h N -0,1 C 4,0 C 19,3 km/h
14.03.2016 01:00 3,6 C 74 % 1030,1 hPa 0,0 l/m 7,2 km/h N -0,6 C 2,8 C 17,7 km/h
14.03.2016 02:00 2,9 C 75 % 1029,9 hPa 0,0 l/m 6,4 km/h N -1,0 C 3,0 C 16,9 km/h
14.03.2016 03:00 2,5 C 75 % 1029,9 hPa 0,0 l/m 6,4 km/h N -1,5 C 1,8 C 18,5 km/h
14.03.2016 04:00 2,0 C 75 % 1029,8 hPa 0,0 l/m 5,6 km/h N -2,1 C 2,0 C 16,9 km/h
14.03.2016 05:00 1,3 C 77 % 1030,2 hPa 0,0 l/m 4,0 km/h N -2,3 C 1,3 C 12,1 km/h
14.03.2016 06:00 1,2 C 77 % 1030,4 hPa 0,0 l/m 4,8 km/h N -2,5 C 1,2 C 11,3 km/h
14.03.2016 07:00 1,8 C 75 % 1030,9 hPa 0,0 l/m 7,4 km/h N -2,3 C 0,8 C 18,9 km/h
14.03.2016 08:00 3,0 C 71 % 1031,0 hPa 0,0 l/m 9,9 km/h N -1,9 C -0,1 C 22,5 km/h
14.03.2016 09:00 3,7 C 68 % 1030,9 hPa 0,0 l/m 9,4 km/h N -1,7 C 1,1 C 20,1 km/h
14.03.2016 10:00 4,3 C 65 % 1030,7 hPa 0,0 l/m 9,6 km/h N -1,8 C 1,6 C 20,1 km/h
14.03.2016 11:00 5,2 C 63 % 1030,1 hPa 0,0 l/m 9,8 km/h N -1,3 C 2,4 C 20,5 km/h
14.03.2016 12:00 6,3 C 59 % 1029,2 hPa 0,0 l/m 10,8 km/h N -1,0 C 3,0 C 24,5 km/h
14.03.2016 13:00 7,3 C 57 % 1028,3 hPa 0,0 l/m 11,7 km/h N -0,7 C 3,6 C 24,9 km/h
14.03.2016 14:00 8,1 C 55 % 1027,3 hPa 0,0 l/m 11,0 km/h N -0,4 C 4,9 C 22,5 km/h
14.03.2016 15:00 8,6 C 53 % 1026,7 hPa 0,0 l/m 11,4 km/h N -0,6 C 5,2 C 26,1 km/h
14.03.2016 16:00 8,6 C 53 % 1026,3 hPa 0,0 l/m 9,0 km/h N -0,5 C 6,7 C 20,1 km/h
14.03.2016 17:00 7,9 C 54 % 1026,1 hPa 0,0 l/m 6,6 km/h N -0,8 C 7,7 C 15,7 km/h
14.03.2016 18:00 6,5 C 58 % 1026,1 hPa 0,0 l/m 6,0 km/h N -1,1 C 6,5 C 16,9 km/h
14.03.2016 19:00 5,3 C 62 % 1025,7 hPa 0,0 l/m 1,7 km/h N -1,5 C 5,3 C 6,4 km/h
14.03.2016 20:00 4,3 C 65 % 1025,5 hPa 0,0 l/m 1,3 km/h N -1,7 C 4,3 C 7,7 km/h
14.03.2016 21:00 4,3 C 65 % 1025,3 hPa 0,0 l/m 4,4 km/h N -1,7 C 4,3 C 12,1 km/h
14.03.2016 22:00 4,1 C 66 % 1025,3 hPa 0,0 l/m 5,3 km/h N -1,6 C 4,1 C 13,7 km/h
14.03.2016 23:00 3,7 C 69 % 1024,8 hPa 0,0 l/m 3,4 km/h N -1,6 C 3,7 C 10,1 km/h
15.03.2016 00:00 3,2 C 70 % 1024,0 hPa 0,0 l/m 1,3 km/h N -1,7 C 3,2 C 7,2 km/h
15.03.2016 01:00 3,6 C 70 % 1023,1 hPa 0,0 l/m 5,2 km/h N -1,3 C 3,6 C 14,1 km/h
15.03.2016 02:00 4,3 C 66 % 1021,8 hPa 0,0 l/m 10,0 km/h N -1,6 C 1,2 C 20,9 km/h
15.03.2016 03:00 4,4 C 65 % 1020,8 hPa 0,0 l/m 8,4 km/h N -1,5 C 2,6 C 19,7 km/h
15.03.2016 04:00 3,8 C 67 % 1019,9 hPa 0,0 l/m 6,0 km/h N -1,7 C 3,7 C 18,8 km/h
15.03.2016 05:00 3,6 C 67 % 1019,6 hPa 0,0 l/m 9,2 km/h N -1,8 C 1,2 C 24,6 km/h
15.03.2016 06:00 2,7 C 75 % 1019,4 hPa 0,0 l/m 9,7 km/h N -1,3 C -0,2 C 25,7 km/h
15.03.2016 07:00 1,8 C 83 % 1019,2 hPa 1,0 l/m 11,3 km/h N -0,8 C -2,2 C 28,2 km/h
15.03.2016 08:00 1,8 C 84 % 1019,0 hPa 1,3 l/m 11,3 km/h N -0,6 C -2,4 C 31,4 km/h
15.03.2016 09:00 2,1 C 84 % 1019,2 hPa 0,8 l/m 12,1 km/h N -0,3 C -2,6 C 28,2 km/h
15.03.2016 10:00 2,0 C 84 % 1019,5 hPa 0,3 l/m 8,9 km/h N -0,4 C -0,0 C 23,4 km/h
15.03.2016 11:00 2,5 C 84 % 1019,7 hPa 0,0 l/m 7,2 km/h N 0,1 C 1,8 C 17,7 km/h
15.03.2016 12:00 2,8 C 83 % 1019,5 hPa 0,0 l/m 5,6 km/h N 0,2 C 2,8 C 17,7 km/h
15.03.2016 13:00 3,3 C 81 % 1019,3 hPa 0,0 l/m 7,2 km/h N 0,4 C 2,6 C 21,7 km/h
15.03.2016 14:00 4,3 C 69 % 1019,2 hPa 0,3 l/m 10,5 km/h N -1,0 C 0,9 C 26,5 km/h
15.03.2016 15:00 3,8 C 71 % 1019,5 hPa 0,0 l/m 8,0 km/h N -0,9 C 2,4 C 24,1 km/h
15.03.2016 16:00 3,0 C 79 % 1019,7 hPa 0,0 l/m 5,6 km/h N -0,3 C 3,0 C 18,5 km/h
15.03.2016 17:00 3,3 C 79 % 1020,0 hPa 0,0 l/m 6,4 km/h N -0,1 C 3,3 C 17,7 km/h
15.03.2016 18:00 2,7 C 81 % 1020,7 hPa 0,0 l/m 4,8 km/h N -0,3 C 2,7 C 14,5 km/h
15.03.2016 19:00 2,5 C 81 % 1021,3 hPa 0,0 l/m 4,0 km/h N -0,4 C 2,5 C 10,5 km/h
15.03.2016 20:00 2,3 C 81 % 1021,8 hPa 0,0 l/m 4,0 km/h N -0,7 C 2,3 C 16,9 km/h
15.03.2016 21:00 1,8 C 83 % 1022,2 hPa 0,3 l/m 4,0 km/h N -0,9 C 1,8 C 13,7 km/h
15.03.2016 22:00 1,3 C 84 % 1022,5 hPa 0,3 l/m 2,4 km/h N -1,1 C 1,3 C 10,4 km/h
15.03.2016 23:00 1,1 C 84 % 1022,9 hPa 0,0 l/m 0,8 km/h N -1,3 C 1,1 C 6,4 km/h
16.03.2016 00:00 0,8 C 84 % 1023,3 hPa 0,0 l/m 0,0 km/h N -1,6 C 0,8 C 5,6 km/h
16.03.2016 01:00 0,7 C 84 % 1023,5 hPa 0,0 l/m 0,0 km/h N -1,7 C 0,7 C 4,0 km/h
16.03.2016 02:00 0,8 C 83 % 1023,7 hPa 0,3 l/m 0,0 km/h N -1,8 C 0,8 C 4,0 km/h
16.03.2016 03:00 0,7 C 83 % 1023,9 hPa 0,3 l/m 0,0 km/h N -1,8 C 0,7 C 4,0 km/h
16.03.2016 04:00 0,7 C 83 % 1024,3 hPa 0,0 l/m 0,0 km/h N -1,8 C 0,7 C 1,6 km/h
16.03.2016 05:00 0,8 C 83 % 1024,8 hPa 0,3 l/m 0,0 km/h N -1,8 C 0,8 C 2,4 km/h
16.03.2016 06:00 1,0 C 83 % 1025,6 hPa 0,5 l/m 0,0 km/h N -1,6 C 1,0 C 3,2 km/h
16.03.2016 07:00 1,3 C 83 % 1026,3 hPa 0,8 l/m 0,0 km/h N -1,3 C 1,3 C 3,2 km/h
16.03.2016 08:00 1,7 C 83 % 1027,4 hPa 1,0 l/m 0,0 km/h N -0,9 C 1,7 C 6,4 km/h
16.03.2016 09:00 2,7 C 82 % 1028,1 hPa 1,0 l/m 0,0 km/h N -0,1 C 2,7 C 8,1 km/h
16.03.2016 10:00 3,6 C 82 % 1029,1 hPa 0,0 l/m 1,6 km/h N 0,8 C 3,6 C 8,9 km/h
16.03.2016 11:00 4,2 C 83 % 1029,6 hPa 0,0 l/m 0,8 km/h N 1,5 C 4,2 C 8,9 km/h
16.03.2016 12:00 4,9 C 84 % 1030,0 hPa 0,0 l/m 1,6 km/h N 2,3 C 4,9 C 9,6 km/h
16.03.2016 13:00 5,6 C 82 % 1029,9 hPa 0,0 l/m 0,8 km/h N 2,6 C 5,6 C 8,1 km/h
16.03.2016 14:00 6,2 C 76 % 1030,1 hPa 0,3 l/m 1,6 km/h N 2,1 C 6,2 C 11,3 km/h
16.03.2016 15:00 6,8 C 72 % 1029,9 hPa 0,0 l/m 1,6 km/h N 2,1 C 6,8 C 8,9 km/h
16.03.2016 16:00 6,4 C 74 % 1030,1 hPa 0,0 l/m 0,8 km/h N 2,1 C 6,4 C 6,4 km/h
16.03.2016 17:00 6,3 C 75 % 1030,3 hPa 0,0 l/m 0,0 km/h N 2,2 C 6,3 C 3,2 km/h
16.03.2016 18:00 5,6 C 75 % 1030,6 hPa 0,0 l/m 0,0 km/h N 1,5 C 5,6 C 0,8 km/h
16.03.2016 19:00 4,1 C 77 % 1030,9 hPa 0,0 l/m 0,0 km/h N 0,4 C 4,1 C 0,0 km/h
16.03.2016 20:00 3,4 C 81 % 1031,1 hPa 0,0 l/m 0,0 km/h N 0,4 C 3,4 C 0,8 km/h
16.03.2016 21:00 2,2 C 81 % 1031,2 hPa 0,0 l/m 0,0 km/h N -0,8 C 2,2 C 0,0 km/h
16.03.2016 22:00 0,8 C 83 % 1031,1 hPa 0,0 l/m 0,0 km/h N -1,8 C 0,8 C 0,0 km/h
16.03.2016 23:00 -0,3 C 83 % 1031,1 hPa 0,0 l/m 0,0 km/h N -2,8 C -0,3 C 0,0 km/h
17.03.2016 00:00 -1,0 C 84 % 1030,9 hPa 0,0 l/m 0,0 km/h N -3,4 C -1,0 C 0,0 km/h
17.03.2016 01:00 -1,3 C 84 % 1030,8 hPa 0,0 l/m 0,0 km/h N -3,6 C -1,3 C 0,0 km/h
17.03.2016 02:00 -1,7 C 84 % 1030,2 hPa 0,0 l/m 0,0 km/h N -4,0 C -1,7 C 0,0 km/h
17.03.2016 03:00 -2,0 C 84 % 1029,9 hPa 0,0 l/m 0,0 km/h N -4,3 C -2,0 C 0,0 km/h
17.03.2016 04:00 -2,4 C 84 % 1029,7 hPa 0,0 l/m 0,0 km/h N -4,7 C -2,4 C 0,0 km/h
17.03.2016 05:00 -2,8 C 84 % 1029,5 hPa 0,0 l/m 0,0 km/h N -5,1 C -2,8 C 0,0 km/h
17.03.2016 06:00 -3,1 C 84 % 1029,4 hPa 0,0 l/m 0,0 km/h N -5,4 C -3,1 C 0,0 km/h
17.03.2016 07:00 -2,2 C 84 % 1029,4 hPa 0,0 l/m 0,0 km/h N -4,6 C -2,2 C 0,0 km/h
17.03.2016 08:00 1,3 C 83 % 1029,2 hPa 0,0 l/m 0,1 km/h N -1,4 C 1,3 C 1,6 km/h
17.03.2016 09:00 4,0 C 83 % 1029,0 hPa 0,0 l/m 0,0 km/h N 1,3 C 4,0 C 2,0 km/h
17.03.2016 10:00 6,8 C 82 % 1028,3 hPa 0,0 l/m 0,5 km/h N 3,8 C 6,8 C 5,2 km/h
17.03.2016 11:00 10,1 C 68 % 1027,6 hPa 0,0 l/m 1,0 km/h N 4,5 C 10,1 C 6,4 km/h
17.03.2016 12:00 11,8 C 58 % 1026,9 hPa 0,0 l/m 1,7 km/h N 3,7 C 11,8 C 12,5 km/h
17.03.2016 13:00 12,6 C 56 % 1026,0 hPa 0,0 l/m 1,9 km/h N 3,9 C 12,6 C 10,9 km/h
17.03.2016 14:00 12,6 C 52 % 1025,1 hPa 0,0 l/m 1,7 km/h N 3,1 C 12,6 C 11,7 km/h
17.03.2016 15:00 12,3 C 52 % 1024,3 hPa 0,0 l/m 0,9 km/h N 2,6 C 12,3 C 8,0 km/h
17.03.2016 16:00 11,7 C 53 % 1023,7 hPa 0,0 l/m 0,6 km/h N 2,3 C 11,7 C 7,6 km/h
17.03.2016 17:00 10,7 C 54 % 1023,3 hPa 0,0 l/m 0,2 km/h N 1,8 C 10,7 C 3,2 km/h
17.03.2016 18:00 8,5 C 59 % 1023,3 hPa 0,0 l/m 0,0 km/h N 0,8 C 8,5 C 0,0 km/h
17.03.2016 19:00 5,3 C 69 % 1023,3 hPa 0,0 l/m 0,0 km/h N 0,1 C 5,3 C 0,0 km/h
17.03.2016 20:00 3,5 C 76 % 1023,2 hPa 0,0 l/m 0,0 km/h N -0,3 C 3,5 C 0,0 km/h
17.03.2016 21:00 1,9 C 80 % 1022,9 hPa 0,0 l/m 0,0 km/h N -1,2 C 1,9 C 0,0 km/h
17.03.2016 22:00 0,9 C 81 % 1022,5 hPa 0,0 l/m 0,0 km/h N -1,9 C 0,9 C 0,0 km/h
17.03.2016 23:00 0,3 C 83 % 1022,1 hPa 0,0 l/m 0,0 km/h N -2,3 C 0,3 C 0,0 km/h
18.03.2016 00:00 -0,1 C 84 % 1021,6 hPa 0,0 l/m 0,0 km/h N -2,5 C -0,1 C 0,4 km/h
18.03.2016 01:00 0,1 C 84 % 1021,2 hPa 0,0 l/m 0,0 km/h N -2,2 C 0,1 C 1,6 km/h
18.03.2016 02:00 0,0 C 84 % 1020,5 hPa 0,0 l/m 0,0 km/h N -2,3 C 0,0 C 1,2 km/h
18.03.2016 03:00 -0,8 C 84 % 1019,9 hPa 0,0 l/m 0,0 km/h N -3,1 C -0,8 C 0,0 km/h
18.03.2016 04:00 -1,5 C 84 % 1019,5 hPa 0,0 l/m 0,0 km/h N -3,8 C -1,5 C 0,0 km/h
18.03.2016 05:00 -1,5 C 84 % 1019,3 hPa 0,0 l/m 0,0 km/h N -3,9 C -1,5 C 0,0 km/h
18.03.2016 06:00 -1,6 C 84 % 1019,3 hPa 0,0 l/m 0,0 km/h N -3,9 C -1,6 C 0,0 km/h
18.03.2016 07:00 0,1 C 83 % 1019,1 hPa 0,0 l/m 0,1 km/h N -2,4 C 0,1 C 1,6 km/h
18.03.2016 08:00 5,0 C 82 % 1018,7 hPa 0,3 l/m 2,9 km/h N 2,2 C 4,9 C 10,9 km/h
18.03.2016 09:00 8,7 C 68 % 1018,3 hPa 0,0 l/m 8,8 km/h N 3,2 C 7,0 C 22,1 km/h
18.03.2016 10:00 10,3 C 60 % 1017,8 hPa 0,0 l/m 9,4 km/h N 2,8 C 8,2 C 22,5 km/h
18.03.2016 11:00 11,2 C 57 % 1017,1 hPa 0,0 l/m 10,6 km/h N 3,0 C 8,6 C 26,1 km/h
18.03.2016 12:00 12,1 C 54 % 1016,2 hPa 0,0 l/m 11,9 km/h N 3,1 C 9,1 C 27,0 km/h
18.03.2016 13:00 13,1 C 51 % 1015,1 hPa 0,0 l/m 11,9 km/h N 3,0 C 10,1 C 26,6 km/h
18.03.2016 14:00 13,5 C 49 % 1014,4 hPa 0,0 l/m 13,5 km/h N 3,0 C 9,9 C 27,8 km/h
18.03.2016 15:00 13,9 C 49 % 1013,7 hPa 0,0 l/m 10,3 km/h N 3,3 C 11,8 C 24,1 km/h
18.03.2016 16:00 13,7 C 48 % 1013,1 hPa 0,0 l/m 10,9 km/h N 2,7 C 11,2 C 24,5 km/h
18.03.2016 17:00 12,8 C 49 % 1013,1 hPa 0,0 l/m 6,7 km/h N 2,4 C 12,5 C 20,5 km/h
18.03.2016 18:00 12,0 C 49 % 1013,2 hPa 0,0 l/m 9,1 km/h N 1,7 C 10,4 C 25,4 km/h
18.03.2016 19:00 11,7 C 51 % 1013,2 hPa 0,0 l/m 13,9 km/h N 1,7 C 7,6 C 29,4 km/h
18.03.2016 20:00 11,4 C 52 % 1013,4 hPa 0,0 l/m 11,3 km/h N 1,9 C 8,5 C 25,3 km/h
18.03.2016 21:00 11,1 C 53 % 1013,5 hPa 0,0 l/m 9,9 km/h N 2,0 C 8,9 C 23,3 km/h
18.03.2016 22:00 10,8 C 54 % 1013,6 hPa 0,0 l/m 7,9 km/h N 1,8 C 9,8 C 20,5 km/h
18.03.2016 23:00 9,6 C 59 % 1014,5 hPa 0,0 l/m 6,8 km/h N 1,9 C 9,2 C 17,7 km/h
19.03.2016 00:00 7,9 C 65 % 1015,0 hPa 0,0 l/m 2,5 km/h N 1,7 C 7,9 C 9,6 km/h
19.03.2016 01:00 7,4 C 66 % 1015,5 hPa 0,0 l/m 4,1 km/h N 1,6 C 7,2 C 14,9 km/h
19.03.2016 02:00 6,6 C 69 % 1015,7 hPa 0,0 l/m 6,6 km/h N 1,2 C 6,1 C 15,7 km/h
19.03.2016 03:00 5,5 C 72 % 1015,9 hPa 0,0 l/m 4,0 km/h N 0,9 C 5,5 C 12,5 km/h
19.03.2016 04:00 4,3 C 76 % 1016,6 hPa 0,0 l/m 1,1 km/h N 0,5 C 4,3 C 6,9 km/h
19.03.2016 05:00 3,7 C 78 % 1017,0 hPa 0,0 l/m 1,1 km/h N 0,2 C 3,7 C 6,0 km/h
19.03.2016 06:00 3,3 C 80 % 1017,5 hPa 0,0 l/m 2,2 km/h N 0,1 C 3,3 C 8,5 km/h
19.03.2016 07:00 3,3 C 80 % 1017,8 hPa 0,0 l/m 3,1 km/h N 0,2 C 3,3 C 10,9 km/h
19.03.2016 08:00 4,3 C 78 % 1017,9 hPa 0,0 l/m 4,9 km/h N 0,8 C 4,3 C 11,7 km/h
19.03.2016 09:00 5,4 C 75 % 1018,0 hPa 0,0 l/m 4,8 km/h N 1,3 C 5,4 C 12,5 km/h
19.03.2016 10:00 6,8 C 71 % 1018,1 hPa 0,0 l/m 3,7 km/h N 1,9 C 6,8 C 11,3 km/h
19.03.2016 11:00 7,9 C 66 % 1018,0 hPa 0,0 l/m 3,6 km/h N 1,9 C 7,9 C 10,5 km/h
19.03.2016 12:00 8,4 C 65 % 1017,7 hPa 0,0 l/m 3,1 km/h N 2,2 C 8,4 C 10,5 km/h
19.03.2016 13:00 8,2 C 66 % 1017,4 hPa 0,0 l/m 2,7 km/h N 2,1 C 8,2 C 9,7 km/h
19.03.2016 14:00 8,6 C 64 % 1017,1 hPa 0,0 l/m 2,8 km/h N 2,2 C 8,6 C 10,1 km/h
19.03.2016 15:00 9,2 C 63 % 1017,1 hPa 0,0 l/m 3,7 km/h N 2,4 C 9,2 C 12,1 km/h
19.03.2016 16:00 8,8 C 64 % 1017,1 hPa 0,0 l/m 3,4 km/h N 2,3 C 8,8 C 9,7 km/h
19.03.2016 17:00 8,1 C 68 % 1017,5 hPa 0,0 l/m 0,3 km/h N 2,6 C 8,1 C 4,4 km/h
19.03.2016 18:00 7,4 C 70 % 1017,8 hPa 0,0 l/m 0,2 km/h N 2,3 C 7,4 C 5,6 km/h
19.03.2016 19:00 7,0 C 71 % 1018,1 hPa 0,0 l/m 0,0 km/h N 2,1 C 7,0 C 0,0 km/h
19.03.2016 20:00 6,7 C 72 % 1018,4 hPa 0,0 l/m 0,0 km/h N 2,0 C 6,7 C 1,2 km/h
19.03.2016 21:00 6,6 C 73 % 1018,4 hPa 0,0 l/m 0,0 km/h N 2,2 C 6,6 C 0,0 km/h
19.03.2016 22:00 6,4 C 75 % 1018,3 hPa 0,0 l/m 0,0 km/h N 2,3 C 6,4 C 0,8 km/h
19.03.2016 23:00 6,3 C 76 % 1018,0 hPa 0,0 l/m 0,0 km/h N 2,3 C 6,3 C 0,8 km/h
20.03.2016 00:00 6,4 C 76 % 1017,9 hPa 0,0 l/m 0,0 km/h N 2,4 C 6,4 C 1,6 km/h
20.03.2016 01:00 6,2 C 77 % 1017,6 hPa 0,0 l/m 0,0 km/h N 2,4 C 6,2 C 0,0 km/h
20.03.2016 02:00 5,7 C 78 % 1017,3 hPa 0,0 l/m 0,0 km/h N 2,2 C 5,7 C 0,0 km/h
20.03.2016 03:00 5,3 C 80 % 1017,0 hPa 0,0 l/m 0,0 km/h N 2,1 C 5,3 C 0,0 km/h
20.03.2016 04:00 5,2 C 81 % 1016,8 hPa 0,0 l/m 0,0 km/h N 2,2 C 5,2 C 0,0 km/h
20.03.2016 05:00 5,1 C 81 % 1016,7 hPa 0,0 l/m 0,0 km/h N 2,1 C 5,1 C 0,4 km/h
20.03.2016 06:00 5,2 C 81 % 1016,9 hPa 0,0 l/m 0,0 km/h N 2,2 C 5,2 C 1,2 km/h
20.03.2016 07:00 5,5 C 81 % 1016,8 hPa 0,0 l/m 0,1 km/h N 2,5 C 5,5 C 1,2 km/h
20.03.2016 08:00 6,5 C 78 % 1016,8 hPa 0,0 l/m 0,6 km/h N 2,9 C 6,5 C 4,8 km/h
20.03.2016 09:00 7,6 C 69 % 1016,9 hPa 0,0 l/m 4,3 km/h N 2,2 C 7,6 C 14,1 km/h
20.03.2016 10:00 8,0 C 67 % 1016,6 hPa 0,0 l/m 7,6 km/h N 2,2 C 6,8 C 18,1 km/h
20.03.2016 11:00 9,3 C 65 % 1015,8 hPa 0,0 l/m 11,0 km/h N 3,1 C 6,4 C 23,7 km/h
20.03.2016 12:00 10,5 C 62 % 1014,9 hPa 0,0 l/m 11,7 km/h N 3,6 C 7,3 C 25,3 km/h
20.03.2016 13:00 11,4 C 61 % 1014,2 hPa 0,0 l/m 11,1 km/h N 4,1 C 8,6 C 23,7 km/h
20.03.2016 14:00 12,3 C 58 % 1013,5 hPa 0,0 l/m 9,5 km/h N 4,4 C 10,5 C 20,9 km/h
20.03.2016 15:00 12,9 C 55 % 1013,0 hPa 0,0 l/m 8,4 km/h N 3,9 C 11,6 C 20,9 km/h
20.03.2016 16:00 12,8 C 52 % 1012,7 hPa 0,0 l/m 7,6 km/h N 3,3 C 12,0 C 21,3 km/h
20.03.2016 17:00 12,0 C 52 % 1012,9 hPa 0,0 l/m 4,8 km/h N 2,4 C 11,9 C 15,7 km/h
20.03.2016 18:00 10,0 C 59 % 1013,3 hPa 0,0 l/m 0,3 km/h N 2,3 C 10,0 C 2,4 km/h
20.03.2016 19:00 7,6 C 66 % 1013,8 hPa 0,0 l/m 0,2 km/h N 1,7 C 7,6 C 4,0 km/h
20.03.2016 20:00 6,6 C 69 % 1014,4 hPa 0,0 l/m 0,1 km/h N 1,4 C 6,6 C 1,6 km/h
20.03.2016 21:00 4,7 C 73 % 1015,0 hPa 0,0 l/m 0,0 km/h N 0,2 C 4,7 C 0,8 km/h
20.03.2016 22:00 4,0 C 76 % 1015,3 hPa 0,0 l/m 0,0 km/h N 0,0 C 4,0 C 1,6 km/h
20.03.2016 23:00 3,4 C 77 % 1015,6 hPa 0,0 l/m 0,0 km/h N -0,2 C 3,4 C 0,8 km/h
Min-Datum _ 17.03.16 18.03.16 20.03.16 - 15.03.16 - 17.03.16 15.03.16 16.03.16
_ Min-Zeit 06:30 16:30 16:15 - 23:30 - 06:00 07:30 18:30
Minimum _ -3,1 C 47 % 1012,6 hPa - 0,0 km/h - -5,4 C -4,5 C 0,0 km/h
Max-Datum _ 18.03.16 15.03.16 16.03.16 15.03.16 18.03.16 - 17.03.16 18.03.16 18.03.16
_ Max-Zeit 15:15 08:30 21:00 08:00 14:30 - 11:00 17:15 19:30
Maximum _ 14,2 C 84 % 1031,2 hPa 1,3 l/m 15,2 km/h
N
- 5,0 C 12,9 C 37,0 km/h
N
Durchschnitt _ 5,1 C 72 % 1021,9 hPa #8,8 l/m 3,8 km/h N 0,3 C 4,5 C 10,9 km/h